createdAt,value
2019-02-15T00:02:24.078Z,3.20
2019-02-15T00:04:56.272Z,3.30
2019-02-15T00:07:29.365Z,3.20
2019-02-15T00:10:02.179Z,3.20
2019-02-15T00:12:33.421Z,3.30
2019-02-15T00:15:07.139Z,3.30
2019-02-15T00:17:53.677Z,3.30
2019-02-15T00:20:43.053Z,3.30
2019-02-15T00:23:15.316Z,3.40
2019-02-15T00:25:47.318Z,3.30
2019-02-15T00:28:19.055Z,3.30
2019-02-15T00:30:50.588Z,3.30
2019-02-15T00:33:21.951Z,3.30
2019-02-15T00:35:52.868Z,3.30
2019-02-15T00:38:23.241Z,3.30
2019-02-15T00:40:55.005Z,3.20
2019-02-15T00:43:25.819Z,3.20
2019-02-15T00:46:10.324Z,3.20
2019-02-15T00:48:41.809Z,3.10
2019-02-15T00:51:32.664Z,3.10
2019-02-15T00:54:24.080Z,3.10
2019-02-15T00:56:57.433Z,3.10
2019-02-15T00:59:30.463Z,3.10
2019-02-15T01:02:10.234Z,3.10
2019-02-15T01:04:56.873Z,3.10
2019-02-15T01:07:46.649Z,3.10
2019-02-15T01:10:19.488Z,3.10
2019-02-15T01:12:58.672Z,3.00
2019-02-15T01:15:32.078Z,2.90
2019-02-15T01:18:05.755Z,2.90
2019-02-15T01:20:39.427Z,2.80
2019-02-15T01:23:11.997Z,2.80
2019-02-15T01:25:46.463Z,2.70
2019-02-15T01:28:21.379Z,2.70
2019-02-15T01:30:59.250Z,2.60
2019-02-15T01:33:40.159Z,2.60
2019-02-15T01:36:30.042Z,2.60
2019-02-15T01:39:02.641Z,2.50
2019-02-15T01:41:35.683Z,2.40
2019-02-15T01:44:19.033Z,2.40
2019-02-15T01:46:51.643Z,2.30
2019-02-15T01:49:24.238Z,2.30
2019-02-15T01:51:55.536Z,2.20
2019-02-15T01:54:29.409Z,2.10
2019-02-15T01:57:01.584Z,2.10
2019-02-15T01:59:34.520Z,2.10
2019-02-15T02:02:08.690Z,2.10
2019-02-15T02:04:41.323Z,2.10
2019-02-15T02:07:14.654Z,2.10
2019-02-15T02:09:46.493Z,2.20
2019-02-15T02:12:18.526Z,2.10
2019-02-15T02:14:50.821Z,2.00
2019-02-15T02:17:22.865Z,2.00
2019-02-15T02:19:54.163Z,2.00
2019-02-15T02:22:28.316Z,1.90
2019-02-15T02:25:03.385Z,1.90
2019-02-15T02:27:35.732Z,1.90
2019-02-15T02:30:11.146Z,1.90
2019-02-15T02:32:43.261Z,1.90
2019-02-15T02:35:16.183Z,1.90
2019-02-15T02:37:47.207Z,1.90
2019-02-15T02:40:17.999Z,1.90
2019-02-15T02:42:51.041Z,1.90
2019-02-15T02:45:26.183Z,1.90
2019-02-15T02:47:59.526Z,1.90
2019-02-15T02:50:33.760Z,1.90
2019-02-15T02:53:07.017Z,1.90
2019-02-15T02:55:38.741Z,1.90
2019-02-15T02:58:12.024Z,1.90
2019-02-15T03:00:44.018Z,1.80
2019-02-15T03:03:15.570Z,1.80
2019-02-15T03:05:48.487Z,1.80
2019-02-15T03:08:21.335Z,1.80
2019-02-15T03:10:53.244Z,1.80
2019-02-15T03:13:23.944Z,1.90
2019-02-15T03:15:55.705Z,1.90
2019-02-15T03:18:28.437Z,1.90
2019-02-15T03:21:00.631Z,1.90
2019-02-15T03:23:34.103Z,1.90
2019-02-15T03:26:05.893Z,1.90
2019-02-15T03:28:40.275Z,1.90
2019-02-15T03:31:11.393Z,1.90
2019-02-15T03:33:43.991Z,1.90
2019-02-15T03:36:16.890Z,1.80
2019-02-15T03:38:50.936Z,1.70
2019-02-15T03:41:29.804Z,1.70
2019-02-15T03:44:04.197Z,1.70
2019-02-15T03:46:37.661Z,1.80
2019-02-15T03:49:10.450Z,1.90
2019-02-15T03:51:42.202Z,2.00
2019-02-15T03:54:13.812Z,2.00
2019-02-15T03:56:49.788Z,2.00
2019-02-15T03:59:21.194Z,2.00
2019-02-15T04:01:53.878Z,2.00
2019-02-15T04:04:25.339Z,2.00
2019-02-15T04:06:57.309Z,2.10
2019-02-15T04:09:29.694Z,2.20
2019-02-15T04:12:02.976Z,2.20
2019-02-15T04:14:35.497Z,2.20
2019-02-15T04:17:08.183Z,2.20
2019-02-15T04:19:40.082Z,2.20
2019-02-15T04:22:12.393Z,2.20
2019-02-15T04:24:47.196Z,2.20
2019-02-15T04:27:18.757Z,2.10
2019-02-15T04:29:50.563Z,2.10
2019-02-15T04:32:23.299Z,2.10
2019-02-15T04:34:55.086Z,2.00
2019-02-15T04:37:25.928Z,2.10
2019-02-15T04:39:58.080Z,2.10
2019-02-15T04:42:30.439Z,2.20
2019-02-15T04:45:02.773Z,2.20
2019-02-15T04:47:34.951Z,2.20
2019-02-15T04:50:08.868Z,2.40
2019-02-15T04:52:40.732Z,2.40
2019-02-15T04:55:13.556Z,2.40
2019-02-15T04:57:45.338Z,2.30
2019-02-15T05:00:18.160Z,2.30
2019-02-15T05:02:49.528Z,2.20
2019-02-15T05:05:22.048Z,2.20
2019-02-15T05:07:54.062Z,2.20
2019-02-15T05:10:26.316Z,2.20
2019-02-15T05:12:58.929Z,2.30
2019-02-15T05:15:29.865Z,2.30
2019-02-15T05:18:01.457Z,2.40
2019-02-15T05:20:34.477Z,2.50
2019-02-15T05:23:07.050Z,2.60
2019-02-15T05:25:38.732Z,2.60
2019-02-15T05:28:10.273Z,2.60
2019-02-15T05:30:41.259Z,2.60
2019-02-15T05:33:13.052Z,2.50
2019-02-15T05:35:45.521Z,2.50
2019-02-15T05:38:17.341Z,2.50
2019-02-15T05:40:51.124Z,2.50
2019-02-15T05:43:23.306Z,2.60
2019-02-15T05:45:54.409Z,2.70
2019-02-15T05:48:25.694Z,2.70
2019-02-15T05:50:57.203Z,2.60
2019-02-15T05:53:28.423Z,2.70
2019-02-15T05:56:00.366Z,2.70
2019-02-15T05:58:33.107Z,2.70
2019-02-15T06:01:04.918Z,2.70
2019-02-15T06:03:36.710Z,2.60
2019-02-15T06:06:07.816Z,2.60
2019-02-15T06:08:40.399Z,2.60
2019-02-15T06:11:12.058Z,2.60
2019-02-15T06:13:44.243Z,2.60
2019-02-15T06:16:16.496Z,2.60
2019-02-15T06:18:48.025Z,2.60
2019-02-15T06:21:20.051Z,2.50
2019-02-15T06:23:51.093Z,2.50
2019-02-15T06:26:23.539Z,2.50
2019-02-15T06:28:54.993Z,2.50
2019-02-15T06:31:26.387Z,2.50
2019-02-15T06:33:57.662Z,2.60
2019-02-15T06:36:32.316Z,2.50
2019-02-15T06:39:05.486Z,2.50
2019-02-15T06:41:37.562Z,2.50
2019-02-15T06:44:09.512Z,2.50
2019-02-15T06:46:42.824Z,2.50
2019-02-15T06:49:14.906Z,2.50
2019-02-15T07:14:15.916Z,2.60
2019-02-15T07:16:45.763Z,2.60
2019-02-15T07:19:15.736Z,2.50
2019-02-15T07:21:46.607Z,2.50
2019-02-15T07:24:16.525Z,2.50
2019-02-15T07:26:46.394Z,2.60
2019-02-15T07:29:16.206Z,2.60
2019-02-15T07:31:46.078Z,2.60
2019-02-15T07:34:20.489Z,2.60
2019-02-15T07:36:52.782Z,2.50
2019-02-15T07:39:24.162Z,2.60
2019-02-15T07:41:56.900Z,2.60
2019-02-15T07:44:26.784Z,2.70
2019-02-15T07:46:56.673Z,2.70
2019-02-15T07:49:27.230Z,2.80
2019-02-15T07:51:58.350Z,2.80
2019-02-15T07:54:29.463Z,2.90
2019-02-15T07:56:59.255Z,2.90
2019-02-15T07:59:29.044Z,3.00
2019-02-15T08:02:01.876Z,3.00
2019-02-15T08:04:30.360Z,3.00
2019-02-15T08:07:01.375Z,3.10
2019-02-15T08:09:31.413Z,3.10
2019-02-15T08:12:02.847Z,3.10
2019-02-15T08:14:34.133Z,3.20
2019-02-15T08:17:04.078Z,3.40
2019-02-15T08:19:34.047Z,3.50
2019-02-15T08:22:04.929Z,3.50
2019-02-15T08:24:34.723Z,3.60
2019-02-15T08:27:05.287Z,3.70
2019-02-15T08:29:35.047Z,3.80
2019-02-15T08:32:07.282Z,3.80
2019-02-15T08:34:37.289Z,3.90
2019-02-15T08:37:08.892Z,4.00
2019-02-15T08:39:40.075Z,4.10
2019-02-15T08:42:09.892Z,4.20
2019-02-15T08:44:42.525Z,4.30
2019-02-15T08:47:12.347Z,4.40
2019-02-15T08:49:42.231Z,4.50
2019-02-15T08:52:12.143Z,4.60
2019-02-15T08:54:42.071Z,4.70
2019-02-15T08:57:11.875Z,4.80
2019-02-15T08:59:42.042Z,4.90
2019-02-15T09:02:16.611Z,5.00
2019-02-15T09:04:46.459Z,5.10
2019-02-15T09:07:17.719Z,5.20
2019-02-15T09:09:48.787Z,5.40
2019-02-15T09:12:19.974Z,5.40
2019-02-15T09:14:49.949Z,5.80
2019-02-15T09:17:19.758Z,6.40
2019-02-15T09:19:50.242Z,7.10
2019-02-15T09:22:20.164Z,7.70
2019-02-15T09:24:51.616Z,8.30
2019-02-15T09:27:24.635Z,8.70
2019-02-15T09:29:54.523Z,9.20
2019-02-15T09:32:25.427Z,9.60
2019-02-15T09:34:56.870Z,9.90
2019-02-15T09:37:26.767Z,10.10
2019-02-15T09:39:59.927Z,10.50
2019-02-15T09:42:32.123Z,10.50
2019-02-15T09:45:01.964Z,10.80
2019-02-15T09:47:33.610Z,11.30
2019-02-15T09:50:04.693Z,11.40
2019-02-15T09:52:34.561Z,11.50
2019-02-15T09:55:06.054Z,11.70
2019-02-15T09:57:39.041Z,11.90
2019-02-15T10:00:10.540Z,12.10
2019-02-15T10:02:43.543Z,12.20
2019-02-15T10:05:17.458Z,12.20
2019-02-15T10:07:50.256Z,12.20
2019-02-15T10:10:27.682Z,12.40
2019-02-15T10:12:59.518Z,12.80
2019-02-15T10:15:29.547Z,13.00
2019-02-15T10:18:01.948Z,13.20
2019-02-15T10:20:31.832Z,13.30
2019-02-15T10:23:06.649Z,13.10
2019-02-15T10:25:40.779Z,13.00
2019-02-15T10:28:11.396Z,13.20
2019-02-15T10:30:44.133Z,13.30
2019-02-15T10:33:13.957Z,13.20
2019-02-15T10:35:45.005Z,13.40
2019-02-15T10:38:15.967Z,13.60
2019-02-15T10:40:51.748Z,13.80
2019-02-15T10:43:21.699Z,13.80
2019-02-15T10:45:56.123Z,13.80
2019-02-15T10:48:30.171Z,13.80
2019-02-15T10:51:03.092Z,14.00
2019-02-15T10:53:35.825Z,14.10
2019-02-15T10:56:08.969Z,13.90
2019-02-15T10:58:39.061Z,13.70
2019-02-15T11:01:08.895Z,13.70
2019-02-15T11:03:38.772Z,13.50
2019-02-15T11:06:10.654Z,13.70
2019-02-15T11:08:40.885Z,13.90
2019-02-15T11:11:10.740Z,14.10
2019-02-15T11:13:40.597Z,13.90
2019-02-15T11:16:12.069Z,13.90
2019-02-15T11:18:44.883Z,14.20
2019-02-15T11:21:14.754Z,14.20
2019-02-15T11:23:47.280Z,14.30
2019-02-15T11:26:24.533Z,14.10
2019-02-15T11:28:50.122Z,14.20
2019-02-15T11:31:20.417Z,14.40
2019-02-15T11:33:50.387Z,14.40
2019-02-15T11:36:20.248Z,14.30
2019-02-15T11:38:50.281Z,14.60
2019-02-15T11:41:20.262Z,14.80
2019-02-15T11:43:50.156Z,14.70
2019-02-15T11:46:21.899Z,14.70
2019-02-15T11:48:53.149Z,14.60
2019-02-15T11:51:23.072Z,14.30
2019-02-15T11:53:52.940Z,14.40
2019-02-15T11:56:22.836Z,14.50
2019-02-15T11:58:52.729Z,14.70
2019-02-15T12:01:22.718Z,14.60
2019-02-15T12:03:57.585Z,14.50
2019-02-15T12:06:29.006Z,14.50
2019-02-15T12:08:59.983Z,14.30
2019-02-15T12:11:31.020Z,14.20
2019-02-15T12:14:00.814Z,14.10
2019-02-15T12:16:32.082Z,14.00
2019-02-15T12:19:01.909Z,14.10
2019-02-15T12:21:31.721Z,14.30
2019-02-15T12:24:01.630Z,14.30
2019-02-15T12:26:31.418Z,14.30
2019-02-15T12:29:01.259Z,14.40
2019-02-15T12:31:31.767Z,14.30
2019-02-15T12:34:01.583Z,14.10
2019-02-15T12:36:31.461Z,14.10
2019-02-15T12:39:01.577Z,14.10
2019-02-15T12:41:31.524Z,14.20
2019-02-15T12:44:01.443Z,14.30
2019-02-15T12:46:31.277Z,14.20
2019-02-15T12:49:01.290Z,14.20
2019-02-15T12:51:31.267Z,14.10
2019-02-15T12:54:03.049Z,14.20
2019-02-15T12:56:34.559Z,14.20
2019-02-15T12:59:04.573Z,14.20
2019-02-15T13:01:35.913Z,14.20
2019-02-15T13:04:06.397Z,14.30
2019-02-15T13:06:36.356Z,14.40
2019-02-15T13:09:07.247Z,14.40
2019-02-15T13:11:38.399Z,14.40
2019-02-15T13:14:08.328Z,14.40
2019-02-15T13:16:39.448Z,14.30
2019-02-15T13:19:09.266Z,14.20
2019-02-15T13:21:42.100Z,14.20
2019-02-15T13:24:12.608Z,14.10
2019-02-15T13:26:42.510Z,14.10
2019-02-15T13:29:12.417Z,14.00
2019-02-15T13:31:42.226Z,13.90
2019-02-15T13:34:12.199Z,14.00
2019-02-15T13:36:45.420Z,13.90
2019-02-15T13:39:15.209Z,13.90
2019-02-15T13:41:45.010Z,13.80
2019-02-15T13:44:14.825Z,13.70
2019-02-15T13:46:46.208Z,13.80
2019-02-15T13:49:16.155Z,13.80
2019-02-15T13:51:45.998Z,13.80
2019-02-15T13:54:15.891Z,13.80
2019-02-15T13:56:46.217Z,13.80
2019-02-15T13:59:16.250Z,13.80
2019-02-15T14:01:46.031Z,13.70
2019-02-15T14:04:15.854Z,13.70
2019-02-15T14:06:53.500Z,13.60
2019-02-15T14:09:23.393Z,13.50
2019-02-15T14:11:54.708Z,13.40
2019-02-15T14:14:24.599Z,13.40
2019-02-15T14:16:54.441Z,13.40
2019-02-15T14:19:28.617Z,13.30
2019-02-15T14:21:59.155Z,13.20
2019-02-15T14:24:29.016Z,13.20
2019-02-15T14:26:58.986Z,13.20
2019-02-15T14:29:29.091Z,13.20
2019-02-15T14:31:58.921Z,13.10
2019-02-15T14:34:30.118Z,13.10
2019-02-15T14:36:59.948Z,13.10
2019-02-15T14:39:29.759Z,13.00
2019-02-15T14:41:59.549Z,12.90
2019-02-15T14:44:30.013Z,12.90
2019-02-15T14:46:59.925Z,12.90
2019-02-15T14:49:31.003Z,12.90
2019-02-15T14:52:00.843Z,12.90
2019-02-15T14:54:30.732Z,12.80
2019-02-15T14:57:01.241Z,12.90
2019-02-15T14:59:31.722Z,12.90
2019-02-15T15:02:01.684Z,12.90
2019-02-15T15:04:31.627Z,12.90
2019-02-15T15:07:01.396Z,12.80
2019-02-15T15:09:31.422Z,12.90
2019-02-15T15:12:01.183Z,12.80
2019-02-15T15:14:31.010Z,12.80
2019-02-15T15:17:01.864Z,12.70
2019-02-15T15:19:33.556Z,12.70
2019-02-15T15:22:03.365Z,12.70
2019-02-15T15:24:34.322Z,12.70
2019-02-15T15:27:06.702Z,12.70
2019-02-15T15:29:38.849Z,12.60
2019-02-15T15:32:08.941Z,12.60
2019-02-15T15:34:50.144Z,12.60
2019-02-15T15:37:20.074Z,12.60
2019-02-15T15:39:49.885Z,12.50
2019-02-15T15:42:21.413Z,12.50
2019-02-15T15:44:51.270Z,12.40
2019-02-15T15:47:21.124Z,12.30
2019-02-15T15:49:51.126Z,12.30
2019-02-15T15:52:21.132Z,12.10
2019-02-15T15:54:53.125Z,12.00
2019-02-15T15:57:24.335Z,11.90
2019-02-15T15:59:56.661Z,11.80
2019-02-15T16:02:26.543Z,11.70
2019-02-15T16:04:56.447Z,11.70
2019-02-15T16:07:35.623Z,11.60
2019-02-15T16:10:10.940Z,11.50
2019-02-15T16:12:40.744Z,11.40
2019-02-15T16:15:12.563Z,11.30
2019-02-15T16:17:43.044Z,11.20
2019-02-15T16:20:13.980Z,11.10
2019-02-15T16:22:43.689Z,11.10
2019-02-15T16:25:13.508Z,11.00
2019-02-15T16:27:46.257Z,10.80
2019-02-15T16:30:16.526Z,10.80
2019-02-15T16:32:48.079Z,10.80
2019-02-15T16:35:18.142Z,10.70
2019-02-15T16:37:47.997Z,10.60
2019-02-15T16:40:17.931Z,10.60
2019-02-15T16:42:48.774Z,10.60
2019-02-15T16:45:18.615Z,10.40
2019-02-15T16:47:48.378Z,10.40
2019-02-15T16:50:19.141Z,10.40
2019-02-15T16:52:48.950Z,10.40
2019-02-15T16:55:18.866Z,10.40
2019-02-15T16:57:48.704Z,10.40
2019-02-15T17:00:18.959Z,10.40
2019-02-15T17:02:48.764Z,10.20
2019-02-15T17:05:18.768Z,10.10
2019-02-15T17:07:49.132Z,10.10
2019-02-15T17:10:19.028Z,10.10
2019-02-15T17:12:48.903Z,10.00
2019-02-15T17:15:18.827Z,10.00
2019-02-15T17:17:54.929Z,9.90
2019-02-15T17:20:24.861Z,9.80
2019-02-15T17:22:54.810Z,9.70
2019-02-15T17:25:24.722Z,9.50
2019-02-15T17:27:54.550Z,9.50
2019-02-15T17:30:25.991Z,9.60
2019-02-15T17:32:57.741Z,9.60
2019-02-15T17:35:27.619Z,9.90
2019-02-15T17:37:58.968Z,9.80
2019-02-15T17:40:29.387Z,9.80
2019-02-15T17:43:00.111Z,9.90
2019-02-15T17:45:29.953Z,9.90
2019-02-15T17:47:59.822Z,10.00
2019-02-15T17:50:30.982Z,9.90
2019-02-15T17:53:02.142Z,9.80
2019-02-15T17:55:34.196Z,9.70
2019-02-15T17:58:05.848Z,9.70
2019-02-15T18:00:37.340Z,9.70
2019-02-15T18:03:07.115Z,9.60
2019-02-15T18:05:37.003Z,9.60
2019-02-15T18:08:13.864Z,9.40
2019-02-15T18:10:45.872Z,9.30
2019-02-15T18:13:18.327Z,9.20
2019-02-15T18:15:48.074Z,9.30
2019-02-15T18:18:17.885Z,9.30
2019-02-15T18:20:47.723Z,9.10
2019-02-15T18:23:17.692Z,9.10
2019-02-15T18:25:48.695Z,9.10
2019-02-15T18:28:19.258Z,9.20
2019-02-15T18:30:49.036Z,9.20
2019-02-15T18:36:24.224Z,9.30
2019-02-15T18:38:55.252Z,9.30
2019-02-15T18:41:26.219Z,9.30
2019-02-15T18:43:56.719Z,9.20
2019-02-15T18:46:27.891Z,9.20
2019-02-15T18:49:00.491Z,9.10
2019-02-15T18:51:30.997Z,8.90
2019-02-15T18:54:01.993Z,8.80
2019-02-15T18:56:33.073Z,8.70
2019-02-15T18:59:04.949Z,8.70
2019-02-15T19:01:35.976Z,8.70
2019-02-15T19:04:07.190Z,8.80
2019-02-15T19:06:38.516Z,8.70
2019-02-15T19:09:09.518Z,8.70
2019-02-15T19:11:40.154Z,8.70
2019-02-15T19:14:11.080Z,8.50
2019-02-15T19:16:41.880Z,8.50
2019-02-15T19:19:12.402Z,8.70
2019-02-15T19:21:43.067Z,8.70
2019-02-15T19:24:14.514Z,8.70
2019-02-15T19:26:45.353Z,8.60
2019-02-15T19:29:15.928Z,8.50
2019-02-15T19:31:47.768Z,8.40
2019-02-15T19:34:18.067Z,8.30
2019-02-15T19:36:48.419Z,8.30
2019-02-15T19:39:18.734Z,8.30
2019-02-15T19:41:49.673Z,8.40
2019-02-15T19:44:23.173Z,8.40
2019-02-15T19:46:57.081Z,8.30
2019-02-15T19:49:38.533Z,8.20
2019-02-15T19:52:09.979Z,8.10
2019-02-15T19:54:44.029Z,8.10
2019-02-15T19:57:15.004Z,8.10
2019-02-15T19:59:54.329Z,8.10
2019-02-15T20:05:54.735Z,8.10
2019-02-15T20:08:25.160Z,7.90
2019-02-15T20:10:59.486Z,7.80
2019-02-15T20:13:30.567Z,7.70
2019-02-15T20:16:01.403Z,7.80
2019-02-15T20:18:31.858Z,7.70
2019-02-15T20:21:08.482Z,7.70
2019-02-15T20:23:43.685Z,7.60
2019-02-15T20:26:17.046Z,7.70
2019-02-15T20:28:55.036Z,7.70
2019-02-15T20:34:57.373Z,7.50
2019-02-15T20:37:17.260Z,7.50
2019-02-15T20:39:48.088Z,7.40
2019-02-15T20:42:18.414Z,7.40
2019-02-15T20:44:49.679Z,7.30
2019-02-15T20:47:21.991Z,7.20
2019-02-15T20:49:58.063Z,7.40
2019-02-15T20:52:27.111Z,7.30
2019-02-15T20:54:58.308Z,7.30
2019-02-15T20:57:28.442Z,7.40
2019-02-15T20:59:59.559Z,7.40
2019-02-15T21:02:32.149Z,7.40
2019-02-15T21:05:05.287Z,7.30
2019-02-15T21:07:37.013Z,7.30
2019-02-15T21:10:11.769Z,7.30
2019-02-15T21:12:44.273Z,7.30
2019-02-15T21:15:15.503Z,7.40
2019-02-15T21:17:46.608Z,7.30
2019-02-15T21:20:17.892Z,7.30
2019-02-15T21:22:48.984Z,7.30
2019-02-15T21:25:21.290Z,7.30
2019-02-15T21:27:52.902Z,7.20
2019-02-15T21:30:23.739Z,7.30
2019-02-15T21:32:54.584Z,7.40
2019-02-15T21:35:26.850Z,7.50
2019-02-15T21:37:59.339Z,7.40
2019-02-15T21:40:29.781Z,7.30
2019-02-15T21:43:03.653Z,7.30
2019-02-15T21:45:35.526Z,7.40
2019-02-15T21:48:07.935Z,7.30
2019-02-15T21:50:39.079Z,7.20
2019-02-15T21:53:09.995Z,7.30
2019-02-15T21:55:40.562Z,7.50
2019-02-15T21:58:11.146Z,7.40
2019-02-15T22:00:42.533Z,7.30
2019-02-15T22:03:13.609Z,7.20
2019-02-15T22:05:44.098Z,7.10
2019-02-15T22:08:14.733Z,7.10
2019-02-15T22:10:47.064Z,7.10
2019-02-15T22:13:18.559Z,7.10
2019-02-15T22:15:49.835Z,7.20
2019-02-15T22:18:20.867Z,7.00
2019-02-15T22:20:53.584Z,6.90
2019-02-15T22:23:24.490Z,6.90
2019-02-15T22:25:55.053Z,7.00
2019-02-15T22:28:26.167Z,7.00
2019-02-15T22:30:57.707Z,7.00
2019-02-15T22:33:29.467Z,7.00
2019-02-15T22:36:01.062Z,6.90
2019-02-15T22:38:32.295Z,7.00
2019-02-15T22:41:08.777Z,6.90
2019-02-15T22:43:40.318Z,6.80
2019-02-15T22:46:10.955Z,6.80
2019-02-15T22:48:41.456Z,6.80
2019-02-15T22:51:12.042Z,6.70
2019-02-15T22:53:42.266Z,6.70
2019-02-15T22:56:13.043Z,6.70
2019-02-15T22:58:43.296Z,6.60
2019-02-15T23:01:16.456Z,6.70
2019-02-15T23:03:47.288Z,6.60
2019-02-15T23:06:20.428Z,6.60
2019-02-15T23:08:50.875Z,6.50
2019-02-15T23:11:24.563Z,6.60
2019-02-15T23:16:40.262Z,6.50
2019-02-15T23:19:10.862Z,6.60
2019-02-15T23:21:43.493Z,6.60
2019-02-15T23:24:15.286Z,6.60
2019-02-15T23:26:46.643Z,6.50
2019-02-15T23:29:18.204Z,6.50
2019-02-15T23:31:49.911Z,6.40
2019-02-15T23:34:21.315Z,6.40
2019-02-15T23:36:51.501Z,6.40
2019-02-15T23:39:22.483Z,6.40
2019-02-15T23:41:53.486Z,6.30
2019-02-15T23:44:25.202Z,6.30
